createdAt,value
2023-01-23T00:01:31.161Z,91.50
2023-01-23T00:03:59.185Z,91.60
2023-01-23T00:06:28.523Z,87.70
2023-01-23T00:08:56.887Z,84.10
2023-01-23T00:11:26.938Z,79.90
2023-01-23T00:13:54.577Z,82.60
2023-01-23T00:16:23.625Z,80.50
2023-01-23T00:18:52.581Z,82.40
2023-01-23T00:21:22.949Z,78.20
2023-01-23T00:23:53.092Z,79.70
2023-01-23T00:26:26.083Z,81.40
2023-01-23T00:28:54.378Z,82.80
2023-01-23T00:31:27.083Z,86.90
2023-01-23T00:33:57.894Z,83.50
2023-01-23T00:36:28.037Z,80.20
2023-01-23T00:38:56.248Z,82.20
2023-01-23T00:41:23.865Z,83.70
2023-01-23T00:43:52.291Z,90.50
2023-01-23T00:46:23.074Z,89.10
2023-01-23T00:48:51.994Z,90.30
2023-01-23T00:51:19.838Z,91.30
2023-01-23T00:53:47.368Z,91.70
2023-01-23T00:56:14.492Z,92.90
2023-01-23T00:58:44.098Z,92.80
2023-01-23T01:01:13.831Z,94.50
2023-01-23T01:03:41.586Z,94.30
2023-01-23T01:06:10.795Z,95.50
2023-01-23T01:08:38.437Z,93.80
2023-01-23T01:11:05.942Z,93.00
2023-01-23T01:13:33.675Z,91.80
2023-01-23T01:16:02.250Z,91.20
2023-01-23T01:18:30.291Z,93.80
2023-01-23T01:20:57.916Z,97.90
2023-01-23T01:23:25.794Z,98.70
2023-01-23T01:25:54.514Z,98.10
2023-01-23T01:28:22.007Z,95.80
2023-01-23T01:30:49.924Z,93.30
2023-01-23T01:33:17.335Z,94.60
2023-01-23T01:35:44.498Z,93.80
2023-01-23T01:38:11.868Z,92.60
2023-01-23T01:40:38.981Z,91.00
2023-01-23T01:43:17.268Z,89.60
2023-01-23T01:46:17.634Z,91.20
2023-01-23T01:48:53.209Z,92.10
2023-01-23T01:51:28.914Z,93.00
2023-01-23T01:54:10.908Z,91.90
2023-01-23T01:56:46.194Z,90.60
2023-01-23T01:59:14.906Z,86.30
2023-01-23T02:01:45.993Z,86.70
2023-01-23T02:04:13.892Z,89.70
2023-01-23T02:06:41.169Z,91.90
2023-01-23T02:09:23.016Z,94.70
2023-01-23T02:11:50.657Z,93.90
2023-01-23T02:14:20.944Z,95.50
2023-01-23T02:16:52.063Z,95.90
2023-01-23T02:19:38.860Z,97.70
2023-01-23T02:22:38.415Z,99.50
2023-01-23T02:25:09.125Z,99.90
2023-01-23T02:27:36.134Z,98.90
2023-01-23T02:30:05.833Z,98.00
2023-01-23T02:32:33.210Z,97.40
2023-01-23T02:35:08.494Z,97.30
2023-01-23T02:37:38.002Z,96.30
2023-01-23T02:40:07.347Z,97.10
2023-01-23T02:42:40.764Z,96.90
2023-01-23T02:45:09.324Z,94.30
2023-01-23T02:47:36.741Z,92.30
2023-01-23T02:50:04.576Z,93.40
2023-01-23T02:52:34.442Z,93.60
2023-01-23T02:55:02.024Z,95.50
2023-01-23T02:57:29.565Z,97.30
2023-01-23T03:00:15.701Z,97.80
2023-01-23T03:02:52.162Z,97.50
2023-01-23T03:05:19.657Z,96.80
2023-01-23T03:07:46.769Z,96.20
2023-01-23T03:10:14.176Z,96.30
2023-01-23T03:12:45.259Z,96.80
2023-01-23T03:15:14.648Z,96.40
2023-01-23T03:17:41.717Z,95.80
2023-01-23T03:20:09.955Z,94.00
2023-01-23T03:22:37.010Z,95.80
2023-01-23T03:25:05.992Z,96.10
2023-01-23T03:27:35.021Z,94.90
2023-01-23T03:30:15.782Z,93.40
2023-01-23T03:32:44.675Z,93.20
2023-01-23T03:35:23.175Z,95.10
2023-01-23T03:37:54.621Z,95.10
2023-01-23T03:40:43.968Z,95.50
2023-01-23T03:43:14.790Z,96.80
2023-01-23T03:45:47.917Z,96.40
2023-01-23T03:48:15.112Z,93.70
2023-01-23T03:50:44.248Z,95.20
2023-01-23T03:53:11.416Z,95.90
2023-01-23T03:55:39.176Z,96.50
2023-01-23T03:58:06.260Z,96.00
2023-01-23T04:00:34.818Z,96.20
2023-01-23T04:03:06.393Z,96.10
2023-01-23T04:05:34.483Z,96.40
2023-01-23T04:08:02.105Z,96.90
2023-01-23T04:10:29.903Z,94.70
2023-01-23T04:13:04.024Z,94.20
2023-01-23T04:15:34.950Z,94.60
2023-01-23T04:18:05.257Z,93.50
2023-01-23T04:20:33.250Z,92.40
2023-01-23T04:23:00.315Z,93.60
2023-01-23T04:25:29.308Z,92.80
2023-01-23T04:27:56.660Z,92.80
2023-01-23T04:30:24.163Z,91.30
2023-01-23T04:32:51.795Z,89.10
2023-01-23T04:35:20.431Z,87.20
2023-01-23T04:37:48.064Z,87.20
2023-01-23T04:40:18.589Z,89.80
2023-01-23T04:42:58.816Z,84.60
2023-01-23T04:45:33.558Z,80.80
2023-01-23T04:48:36.140Z,81.00
2023-01-23T04:51:03.862Z,80.60
2023-01-23T04:53:31.168Z,80.50
2023-01-23T04:56:02.557Z,80.70
2023-01-23T04:58:30.639Z,82.20
2023-01-23T05:01:06.565Z,87.20
2023-01-23T05:03:35.576Z,90.50
2023-01-23T05:06:02.967Z,92.20
2023-01-23T05:08:30.335Z,90.30
2023-01-23T05:11:10.868Z,87.10
2023-01-23T05:13:40.801Z,86.80
2023-01-23T05:16:10.706Z,84.60
2023-01-23T05:18:58.173Z,82.30
2023-01-23T05:21:26.429Z,83.20
2023-01-23T05:23:58.579Z,79.10
2023-01-23T05:26:26.084Z,78.30
2023-01-23T05:28:55.236Z,76.10
2023-01-23T05:31:22.718Z,75.90
2023-01-23T05:34:09.811Z,82.00
2023-01-23T05:36:40.160Z,81.90
2023-01-23T05:39:07.837Z,83.60
2023-01-23T05:41:35.334Z,85.60
2023-01-23T05:44:34.718Z,87.50
2023-01-23T05:47:06.740Z,86.40
2023-01-23T05:49:36.967Z,89.00
2023-01-23T05:52:04.604Z,84.30
2023-01-23T05:54:32.782Z,79.90
2023-01-23T05:57:00.392Z,77.60
2023-01-23T05:59:46.179Z,76.20
2023-01-23T06:02:31.406Z,71.50
2023-01-23T06:05:18.807Z,74.10
2023-01-23T06:08:05.327Z,68.70
2023-01-23T06:10:32.466Z,63.20
2023-01-23T06:12:59.819Z,52.00
2023-01-23T06:15:28.825Z,54.00
2023-01-23T06:18:00.455Z,54.70
2023-01-23T06:20:27.708Z,59.00
2023-01-23T06:22:55.349Z,63.00
2023-01-23T06:25:25.285Z,59.20
2023-01-23T06:27:55.409Z,54.00
2023-01-23T06:30:25.243Z,48.10
2023-01-23T06:32:52.905Z,54.10
2023-01-23T06:35:26.273Z,56.20
2023-01-23T06:37:54.850Z,57.60
2023-01-23T06:40:23.444Z,57.70
2023-01-23T06:43:21.877Z,61.60
2023-01-23T06:45:50.254Z,60.40
2023-01-23T06:48:19.765Z,56.10
2023-01-23T06:50:49.492Z,55.40
2023-01-23T06:53:18.258Z,55.70
2023-01-23T06:55:47.093Z,53.20
2023-01-23T06:58:15.885Z,60.70
2023-01-23T07:00:44.701Z,62.00
2023-01-23T07:03:27.033Z,59.80
2023-01-23T07:05:54.360Z,66.50
2023-01-23T07:08:22.130Z,59.30
2023-01-23T07:10:50.881Z,51.60
2023-01-23T07:13:18.243Z,42.20
2023-01-23T07:15:46.838Z,34.20
2023-01-23T07:18:14.243Z,33.90
2023-01-23T07:20:44.716Z,42.00
2023-01-23T07:23:12.247Z,39.60
2023-01-23T07:25:39.979Z,38.50
2023-01-23T07:28:07.497Z,35.70
2023-01-23T07:30:34.672Z,40.10
2023-01-23T07:33:02.533Z,46.10
2023-01-23T07:35:29.702Z,37.10
2023-01-23T07:37:57.757Z,33.60
2023-01-23T07:40:25.504Z,33.30
2023-01-23T07:42:53.013Z,26.30
2023-01-23T07:45:20.132Z,24.80
2023-01-23T07:47:53.471Z,19.90
2023-01-23T07:50:20.964Z,23.90
2023-01-23T07:52:48.476Z,14.70
2023-01-23T07:55:15.514Z,13.00
2023-01-23T07:57:42.800Z,11.20
2023-01-23T08:00:10.967Z,9.10
2023-01-23T08:02:41.080Z,7.60
2023-01-23T08:05:08.765Z,8.30
2023-01-23T08:07:36.202Z,1.00
2023-01-23T08:10:06.347Z,1.00
2023-01-23T08:12:34.630Z,1.00
2023-01-23T08:15:01.946Z,1.00
2023-01-23T08:17:29.329Z,1.00
2023-01-23T08:19:56.478Z,1.00
2023-01-23T08:22:23.807Z,1.00
2023-01-23T08:24:51.064Z,1.00
2023-01-23T08:27:19.736Z,1.00
2023-01-23T08:29:47.055Z,1.00
2023-01-23T08:32:14.798Z,1.00
2023-01-23T08:34:42.253Z,1.00
2023-01-23T08:37:10.106Z,1.00
2023-01-23T08:39:37.619Z,1.00
2023-01-23T08:42:05.241Z,1.00
2023-01-23T08:44:34.262Z,99.90
2023-01-23T08:47:03.405Z,99.90
2023-01-23T08:49:31.091Z,99.90
2023-01-23T08:52:00.212Z,99.90
2023-01-23T08:54:27.518Z,1.00
2023-01-23T08:56:54.908Z,1.00
2023-01-23T09:01:49.918Z,99.90
2023-01-23T09:04:19.082Z,1.00
2023-01-23T09:09:14.248Z,1.00
2023-01-23T09:11:41.776Z,1.00
2023-01-23T09:24:27.328Z,99.90
2023-01-23T09:26:58.184Z,99.90
2023-01-23T09:29:25.114Z,99.90
2023-01-23T09:31:52.567Z,99.90
2023-01-23T09:34:21.357Z,99.90
2023-01-23T09:36:49.065Z,99.90
2023-01-23T09:39:17.050Z,99.90
2023-01-23T09:41:46.232Z,99.90
2023-01-23T09:44:35.312Z,99.90
2023-01-23T09:47:21.011Z,99.90
2023-01-23T09:50:03.252Z,99.90
2023-01-23T09:52:46.151Z,75.50
2023-01-23T09:55:44.227Z,1.00
2023-01-23T09:58:50.003Z,95.30
2023-01-23T10:01:17.766Z,1.00
2023-01-23T10:03:44.897Z,1.00
2023-01-23T10:06:25.286Z,1.00
2023-01-23T10:09:13.468Z,99.90
2023-01-23T10:12:12.690Z,99.90
2023-01-23T10:15:03.829Z,99.90
2023-01-23T10:17:47.189Z,1.00
2023-01-23T10:20:33.809Z,99.90
2023-01-23T10:23:25.966Z,99.90
2023-01-23T10:25:53.697Z,1.00
2023-01-23T10:28:38.032Z,99.90
2023-01-23T10:31:38.539Z,99.90
2023-01-23T10:34:28.251Z,64.70
2023-01-23T10:37:15.516Z,99.90
2023-01-23T10:40:00.045Z,1.00
2023-01-23T10:42:30.952Z,99.90
2023-01-23T10:45:00.848Z,99.90
2023-01-23T10:47:43.220Z,1.00
2023-01-23T10:50:11.385Z,1.00
2023-01-23T10:52:46.075Z,99.90
2023-01-23T10:55:19.824Z,99.90
2023-01-23T10:57:49.811Z,99.90
2023-01-23T11:05:50.628Z,99.90
2023-01-23T11:08:28.758Z,1.00
2023-01-23T11:11:16.128Z,99.90
2023-01-23T11:13:45.605Z,1.70
2023-01-23T11:16:19.210Z,99.90
2023-01-23T11:19:11.566Z,99.90
2023-01-23T11:21:50.504Z,21.60
2023-01-23T11:24:38.495Z,99.90
2023-01-23T11:27:30.334Z,56.40
2023-01-23T11:30:33.328Z,67.40
2023-01-23T11:33:23.550Z,99.90
2023-01-23T11:36:04.551Z,99.90
2023-01-23T11:38:52.463Z,74.70
2023-01-23T11:41:32.632Z,1.00
2023-01-23T11:44:07.332Z,99.90
2023-01-23T11:46:58.244Z,99.90
2023-01-23T11:50:02.067Z,1.00
2023-01-23T11:52:36.518Z,99.90
2023-01-23T11:55:24.982Z,99.90
2023-01-23T11:58:21.289Z,99.90
2023-01-23T12:01:21.043Z,99.90
2023-01-23T12:04:04.601Z,99.90
2023-01-23T12:06:42.867Z,22.20
2023-01-23T12:09:12.357Z,99.90
2023-01-23T12:11:50.347Z,99.90
2023-01-23T12:14:24.125Z,5.10
2023-01-23T12:17:00.571Z,99.90
2023-01-23T12:19:45.593Z,1.00
2023-01-23T12:22:21.000Z,99.90
2023-01-23T12:24:59.965Z,99.90
2023-01-23T12:27:40.022Z,96.70
2023-01-23T12:30:27.957Z,37.00
2023-01-23T12:33:23.356Z,99.90
2023-01-23T12:36:28.802Z,1.00
2023-01-23T12:39:14.287Z,99.90
2023-01-23T12:41:52.914Z,99.90
2023-01-23T12:44:30.734Z,99.90
2023-01-23T12:47:12.863Z,1.00
2023-01-23T12:49:54.012Z,42.50
2023-01-23T12:52:32.690Z,99.90
2023-01-23T12:55:23.033Z,99.90
2023-01-23T12:57:59.816Z,81.20
2023-01-23T13:00:46.108Z,99.90
2023-01-23T13:03:47.245Z,99.90
2023-01-23T13:06:55.678Z,99.90
2023-01-23T13:09:31.711Z,99.90
2023-01-23T13:12:24.433Z,64.00
2023-01-23T13:15:14.490Z,99.90
2023-01-23T13:17:49.312Z,59.20
2023-01-23T13:20:47.043Z,1.00
2023-01-23T13:23:29.645Z,99.90
2023-01-23T13:26:15.602Z,99.90
2023-01-23T13:28:48.658Z,99.90
2023-01-23T13:31:34.361Z,71.20
2023-01-23T13:34:14.840Z,11.20
2023-01-23T13:36:46.906Z,1.00
2023-01-23T13:39:17.015Z,99.90
2023-01-23T13:42:18.527Z,28.50
2023-01-23T13:45:16.863Z,2.50
2023-01-23T14:22:56.565Z,99.90
2023-01-23T14:25:23.860Z,99.90
2023-01-23T14:28:03.760Z,99.90
2023-01-23T14:32:59.529Z,99.90
2023-01-23T14:35:30.361Z,99.90
2023-01-23T14:38:05.123Z,99.90
2023-01-23T14:40:43.456Z,99.90
2023-01-23T14:43:23.484Z,99.90
2023-01-23T14:46:00.249Z,99.90
2023-01-23T14:48:28.611Z,99.90
2023-01-23T14:51:08.925Z,99.90
2023-01-23T14:53:40.568Z,1.00
2023-01-23T14:56:11.032Z,99.90
2023-01-23T14:58:39.052Z,1.00
2023-01-23T15:01:06.183Z,1.00
2023-01-23T15:03:44.186Z,1.00
2023-01-23T15:06:15.965Z,1.00
2023-01-23T15:08:46.391Z,1.00
2023-01-23T15:11:14.168Z,1.00
2023-01-23T15:13:43.191Z,1.00
2023-01-23T15:16:38.559Z,1.00
2023-01-23T15:19:20.089Z,1.00
2023-01-23T15:21:47.489Z,1.00
2023-01-23T15:24:14.826Z,1.00
2023-01-23T15:26:43.005Z,1.00
2023-01-23T15:29:10.427Z,1.00
2023-01-23T15:31:40.520Z,1.00
2023-01-23T15:34:30.656Z,1.00
2023-01-23T15:37:11.256Z,1.00
2023-01-23T15:39:49.335Z,1.00
2023-01-23T15:42:19.309Z,1.00
2023-01-23T15:49:42.581Z,1.00
2023-01-23T15:52:23.195Z,1.00
2023-01-23T15:54:53.852Z,1.00
2023-01-23T15:57:21.260Z,1.00
2023-01-23T15:59:48.795Z,1.00
2023-01-23T16:02:30.063Z,1.00
2023-01-23T16:05:00.895Z,1.00
2023-01-23T16:07:35.536Z,1.00
2023-01-23T16:10:24.753Z,1.00
2023-01-23T16:12:54.814Z,1.00
2023-01-23T16:15:25.173Z,1.00
2023-01-23T16:17:52.852Z,1.00
2023-01-23T16:20:27.616Z,1.00
2023-01-23T16:23:14.097Z,1.00
2023-01-23T16:25:45.062Z,1.00
2023-01-23T16:28:20.821Z,1.00
2023-01-23T16:30:48.952Z,1.00
2023-01-23T16:35:46.399Z,1.00
2023-01-23T16:38:28.194Z,2.70
2023-01-23T16:40:59.482Z,4.20
2023-01-23T16:43:26.902Z,9.80
2023-01-23T16:45:56.499Z,4.70
2023-01-23T16:48:27.743Z,3.00
2023-01-23T16:51:03.373Z,1.00
2023-01-23T16:53:34.713Z,13.80
2023-01-23T16:56:04.306Z,1.00
2023-01-23T16:58:39.566Z,1.00
2023-01-23T17:01:21.787Z,12.00
2023-01-23T17:03:56.405Z,17.20
2023-01-23T17:06:26.685Z,17.50
2023-01-23T17:08:55.674Z,19.50
2023-01-23T17:11:28.287Z,21.70
2023-01-23T17:14:01.827Z,21.20
2023-01-23T17:16:30.251Z,1.00
2023-01-23T17:19:00.967Z,1.00
2023-01-23T17:21:34.756Z,12.60
2023-01-23T17:26:29.767Z,11.90
2023-01-23T17:31:29.039Z,17.90
2023-01-23T17:36:44.476Z,12.50
2023-01-23T17:44:10.924Z,18.80
2023-01-23T17:46:39.648Z,15.00
2023-01-23T17:49:29.251Z,18.20
2023-01-23T17:52:01.389Z,18.90
2023-01-23T17:56:56.402Z,24.90
2023-01-23T17:59:23.445Z,12.10
2023-01-23T18:01:51.102Z,21.00
2023-01-23T18:04:26.678Z,21.80
2023-01-23T18:06:54.066Z,23.20
2023-01-23T18:11:54.418Z,1.00
2023-01-23T18:14:57.713Z,11.80
2023-01-23T18:17:37.533Z,16.70
2023-01-23T18:20:20.325Z,1.00
2023-01-23T18:22:50.739Z,11.20
2023-01-23T18:25:19.532Z,15.70
2023-01-23T18:28:00.578Z,15.70
2023-01-23T18:31:03.705Z,2.10
2023-01-23T18:33:49.618Z,18.20
2023-01-23T18:36:30.943Z,17.40
2023-01-23T18:39:32.071Z,19.40
2023-01-23T18:42:05.106Z,24.10
2023-01-23T18:44:34.824Z,12.70
2023-01-23T18:47:05.695Z,16.50
2023-01-23T18:49:33.648Z,18.60
2023-01-23T18:52:13.676Z,19.70
2023-01-23T18:54:51.905Z,23.80
2023-01-23T18:57:50.380Z,28.80
2023-01-23T19:00:24.114Z,28.20
2023-01-23T19:02:55.324Z,30.60
2023-01-23T19:05:32.907Z,8.60
2023-01-23T19:08:02.159Z,22.80
2023-01-23T19:10:46.715Z,31.00
2023-01-23T19:13:40.575Z,11.10
2023-01-23T19:18:45.724Z,28.60
2023-01-23T19:21:26.613Z,7.90
2023-01-23T19:26:23.196Z,14.70
2023-01-23T19:28:50.782Z,22.70
2023-01-23T19:31:30.100Z,21.80
2023-01-23T19:33:58.845Z,4.30
2023-01-23T19:36:27.344Z,22.60
2023-01-23T19:39:01.685Z,22.20
2023-01-23T19:41:34.464Z,23.90
2023-01-23T19:44:03.020Z,17.30
2023-01-23T19:46:33.612Z,20.20
2023-01-23T19:49:03.683Z,17.20
2023-01-23T19:51:32.724Z,20.70
2023-01-23T19:56:30.279Z,24.30
2023-01-23T19:58:57.430Z,23.10
2023-01-23T20:01:47.960Z,20.20
2023-01-23T20:04:18.193Z,19.60
2023-01-23T20:07:16.324Z,21.00
2023-01-23T20:12:13.249Z,2.30
2023-01-23T20:14:40.284Z,20.80
2023-01-23T20:17:07.752Z,17.60
2023-01-23T20:19:34.871Z,10.80
2023-01-23T20:22:02.351Z,24.80
2023-01-23T20:24:29.415Z,27.80
2023-01-23T20:26:56.794Z,25.20
2023-01-23T20:29:23.952Z,23.50
2023-01-23T20:31:54.486Z,24.10
2023-01-23T20:36:49.354Z,25.50
2023-01-23T20:39:16.395Z,27.90
2023-01-23T20:41:43.797Z,27.90
2023-01-23T20:44:12.621Z,21.10
2023-01-23T20:46:39.894Z,20.20
2023-01-23T20:49:07.066Z,26.60
2023-01-23T20:51:34.558Z,28.10
2023-01-23T20:54:01.668Z,29.30
2023-01-23T20:56:29.149Z,34.60
2023-01-23T20:59:15.640Z,21.30
2023-01-23T21:02:02.068Z,30.00
2023-01-23T21:04:31.846Z,11.50
2023-01-23T21:07:00.206Z,32.40
2023-01-23T21:09:27.732Z,15.10
2023-01-23T21:11:55.512Z,28.00
2023-01-23T21:14:23.404Z,32.00
2023-01-23T21:16:50.709Z,33.80
2023-01-23T21:19:17.792Z,26.60
2023-01-23T21:21:45.359Z,27.30
2023-01-23T21:24:12.987Z,28.20
2023-01-23T21:26:40.991Z,28.60
2023-01-23T21:29:08.673Z,32.70
2023-01-23T21:31:41.596Z,34.40
2023-01-23T21:34:12.233Z,31.80
2023-01-23T21:36:41.772Z,24.40
2023-01-23T21:39:11.721Z,16.80
2023-01-23T21:41:39.170Z,30.90
2023-01-23T21:46:38.073Z,16.50
2023-01-23T21:49:05.169Z,29.10
2023-01-23T21:51:32.686Z,32.00
2023-01-23T21:53:59.789Z,25.90
2023-01-23T21:56:27.512Z,34.40
2023-01-23T22:01:35.694Z,18.80
2023-01-23T22:04:09.216Z,42.00
2023-01-23T22:06:39.069Z,42.50
2023-01-23T22:09:07.190Z,24.60
2023-01-23T22:11:34.864Z,41.80
2023-01-23T22:14:02.158Z,38.60
2023-01-23T22:16:46.916Z,37.90
2023-01-23T22:19:16.101Z,23.10
2023-01-23T22:21:44.319Z,49.10
2023-01-23T22:24:11.390Z,48.30
2023-01-23T22:26:38.787Z,42.40
2023-01-23T22:29:05.777Z,48.40
2023-01-23T22:31:33.163Z,45.30
2023-01-23T22:34:00.223Z,42.80
2023-01-23T22:36:27.575Z,43.80
2023-01-23T22:38:55.600Z,45.30
2023-01-23T22:41:23.887Z,51.20
2023-01-23T22:43:55.405Z,47.20
2023-01-23T22:46:25.236Z,42.90
2023-01-23T22:48:52.324Z,44.90
2023-01-23T22:51:25.441Z,46.40
2023-01-23T22:53:54.075Z,25.80
2023-01-23T22:56:21.755Z,30.00
2023-01-23T22:58:50.163Z,47.40
2023-01-23T23:01:18.710Z,50.00
2023-01-23T23:03:46.087Z,50.50
2023-01-23T23:06:15.783Z,53.00
2023-01-23T23:08:47.125Z,54.30
2023-01-23T23:11:17.987Z,50.90
2023-01-23T23:13:45.838Z,48.80
2023-01-23T23:16:20.866Z,47.90
2023-01-23T23:18:50.091Z,58.90
2023-01-23T23:21:20.311Z,64.30
2023-01-23T23:23:47.819Z,62.80
2023-01-23T23:26:15.982Z,61.50
2023-01-23T23:28:43.246Z,60.00
2023-01-23T23:31:11.359Z,58.30
2023-01-23T23:33:38.729Z,59.40
2023-01-23T23:36:06.861Z,60.50
2023-01-23T23:38:35.003Z,64.60
2023-01-23T23:41:07.014Z,66.50
2023-01-23T23:43:34.599Z,61.30
2023-01-23T23:46:05.678Z,34.10
2023-01-23T23:48:34.846Z,61.70
2023-01-23T23:51:07.876Z,63.30
2023-01-23T23:53:36.283Z,56.90
2023-01-23T23:56:04.722Z,58.40
2023-01-23T23:58:32.635Z,58.70
